Jackson, Missouri
Current Conditions -  °F | °C
As of 10:16 PM on Sunday 25 Jan 2015 (Local Time) from KCGI Reporting Station
Overcast Overcast  
Wind Chill: 26°   Ceiling: 1500
Heat Index: 37°   Visibility: 10mi
Dew Point: 33°   Wind: 23mph
Humidity: 86%   Direction: 350°N
Pressure: 29.91"   Gusts: NA
Location:  37.38°N, 89.67°W
Report Text: KCGI 260416Z AUTO 35020KT 10SM OVC015 03/01 A2991 RMK AO2 PK WND 35030/0403 T00280006 TSNO
Loading
Personal Weather Stations






























Interactive Weather Map New forecast layout! Learn more

10-Day Weather Forecast

Advertisements
Track Severe Weather on mobile